Meknes, Morocco
Current Conditions -  °F | °C
As of 5:00 PM on Sunday 23 Nov 2014 (Local Time) from GMFM Reporting Station
Broken Clouds Broken Clouds  
Wind Chill: 19°   Ceiling: 2000
Heat Index: 19°   Visibility: 6mi
Dew Point: 11°   Wind: 7mph
Humidity: 60%   Direction: 320°NW
Pressure: 29.85"   Gusts: NA
Location:  33.9°N, 5.56°W
Report Text: GMFM 231600Z 32006KT 9999 BKN020 SCT100 19/11 Q1011 NOSIG
Loading
Personal Weather Stations






























Interactive Weather Map New forecast layout! Learn more

10-Day Weather Forecast

Advertisements
Track Severe Weather on mobile